Weather reports worldwide

Advertisment
Manchester/Intl, United Kingdom (3334): temperature & dewpoint: 20.09.2018 10:00:00 - 26.09.2018 10:00:00 (BST)Manchester/Intl, United Kingdom (3334): wind speed: 20.09.2018 10:00:00 - 26.09.2018 10:00:00 (BST)Manchester/Intl, United Kingdom (3334): wind direction: 20.09.2018 10:00:00 - 26.09.2018 10:00:00 (BST)Manchester/Intl, United Kingdom (3334): visibility: 20.09.2018 10:00:00 - 26.09.2018 10:00:00 (BST)
Date & Time tt [°C] td [°C] ff [km/h] ff [kn] dd vv [km]
26.09.2018 10:00:00 14,0 11,0 9 5 S 10
26.09.2018 09:00:00 13,0 10,0 13 7 S 10
26.09.2018 08:00:00 12,0 9,0 11 6 S 10
26.09.2018 07:00:00 12,0 9,0 13 7 S 10
26.09.2018 06:00:00 12,0 9,0 9 5 S 10
26.09.2018 05:00:00 11,0 9,0 11 6 S 10
26.09.2018 04:00:00 12,0 9,0 13 7 S 10
26.09.2018 03:00:00 11,0 8,0 13 7 S 10
26.09.2018 02:00:00 12,0 8,0 13 7 S 10
26.09.2018 01:00:00 12,0 8,0 13 7 S 10
26.09.2018 00:00:00 12,0 8,0 13 7 SSW 10
25.09.2018 23:00:00 13,0 7,0 15 8 SSW 10
25.09.2018 22:00:00 13,0 7,0 13 7 SSW 10
25.09.2018 21:00:00 13,0 6,0 13 7 SSW 10
25.09.2018 20:00:00 13,0 6,0 13 7 SSW 10
25.09.2018 19:00:00 13,0 6,0 8 4 SSW 10
25.09.2018 18:00:00 15,0 6,0 13 7 SSW 10
25.09.2018 17:00:00 15,0 5,0 13 7 SSW 10
25.09.2018 16:00:00 16,0 5,0 16 9 SW 10
25.09.2018 15:00:00 15,0 6,0 15 8 S 10
25.09.2018 14:00:00 15,0 6,0 15 8 S 10
25.09.2018 13:00:00 14,0 5,0 22 12 SW 10
25.09.2018 12:00:00 13,0 6,0 11 6 S 10
25.09.2018 11:00:00 12,0 6,0 13 7 SSW 10
25.09.2018 10:00:00 10,0 6,0 9 5 S 10
25.09.2018 09:00:00 8,0 6,0 5 3 - 10
25.09.2018 08:00:00 5,0 4,0 5 3 - 10
25.09.2018 07:00:00 5,0 4,0 2 1 - 10
25.09.2018 06:00:00 5,0 4,0 5 3 SSE 10
25.09.2018 05:00:00 4,0 4,0 5 3 SSE 10
25.09.2018 04:00:00 5,0 4,0 2 1 - 10
25.09.2018 03:00:00 5,0 4,0 5 3 SSE 10
25.09.2018 02:00:00 4,0 4,0 5 3 SSE 10
25.09.2018 01:00:00 4,0 3,0 2 1 - 10
25.09.2018 00:00:00 5,0 4,0 8 4 SSE 10
24.09.2018 23:00:00 6,0 4,0 8 4 ESE 10
24.09.2018 22:00:00 9,0 5,0 4 2 W 10
24.09.2018 21:00:00 10,0 5,0 4 2 - 10
24.09.2018 20:00:00 11,0 5,0 5 3 - 10
24.09.2018 19:00:00 11,0 4,0 11 6 WNW 10
24.09.2018 18:00:00 13,0 3,0 18 10 WNW 10
24.09.2018 17:00:00 13,0 3,0 22 12 W 10
24.09.2018 16:00:00 13,0 4,0 18 10 WNW 10
24.09.2018 15:00:00 13,0 4,0 18 10 WNW 10
24.09.2018 14:00:00 14,0 3,0 21 11 W 10
24.09.2018 13:00:00 12,0 6,0 13 7 WNW 10
24.09.2018 12:00:00 12,0 6,0 13 7 WNW 10
24.09.2018 11:00:00 11,0 5,0 8 4 W 10
24.09.2018 10:00:00 10,0 5,0 4 2 - 10
24.09.2018 09:00:00 7,0 5,0 5 3 SSE 10
24.09.2018 08:00:00 3,0 3,0 5 3 SE 10
24.09.2018 07:00:00 2,0 2,0 2 1 - 10
24.09.2018 06:00:00 3,0 2,0 4 2 - 10
24.09.2018 05:00:00 3,0 3,0 5 3 - 10
24.09.2018 04:00:00 4,0 3,0 4 2 NNW 10
24.09.2018 03:00:00 6,0 4,0 5 3 W 10
24.09.2018 02:00:00 7,0 4,0 5 3 - 10
24.09.2018 01:00:00 7,0 4,0 8 4 WSW 10
24.09.2018 00:00:00 8,0 4,0 2 1 - 10
23.09.2018 23:00:00 9,0 5,0 4 2 - 10
23.09.2018 22:00:00 10,0 6,0 9 5 WNW 10
23.09.2018 21:00:00 10,0 6,0 5 3 - 10
23.09.2018 20:00:00 11,0 5,0 11 6 WNW 10
23.09.2018 19:00:00 11,0 6,0 8 4 NNW 10
23.09.2018 18:00:00 11,0 7,0 13 7 NW 10
23.09.2018 17:00:00 13,0 4,0 28 15 NW 10
23.09.2018 16:00:00 13,0 4,0 21 11 NW 10
23.09.2018 15:00:00 13,0 4,0 22 12 NW 10
23.09.2018 14:00:00 13,0 3,0 24 13 NW 10
23.09.2018 13:00:00 12,0 3,0 22 12 NNW 10
23.09.2018 12:00:00 12,0 4,0 21 11 NW 10
23.09.2018 11:00:00 11,0 5,0 16 9 NNW 10
23.09.2018 10:00:00 9,0 5,0 9 5 NNW 10
23.09.2018 09:00:00 8,0 6,0 8 4 NNW 10
23.09.2018 08:00:00 7,0 5,0 5 3 - 10
23.09.2018 07:00:00 7,0 6,0 5 3 WNW 10
23.09.2018 06:00:00 7,0 6,0 2 1 - 10
23.09.2018 05:00:00 7,0 6,0 2 1 - 10
23.09.2018 04:00:00 7,0 6,0 4 2 NE 10
23.09.2018 03:00:00 7,0 7,0 2 1 - 10
23.09.2018 02:00:00 6,0 5,0 2 1 SW 10
23.09.2018 01:00:00 9,0 8,0 5 3 - 10
23.09.2018 00:00:00 8,0 8,0 2 1 - 10
22.09.2018 23:00:00 7,0 7,0 0 0 N 10
22.09.2018 22:00:00 7,0 7,0 2 1 - 10
22.09.2018 21:00:00 8,0 8,0 2 1 - 10
22.09.2018 20:00:00 9,0 8,0 0 0 N 10
22.09.2018 19:00:00 10,0 9,0 2 1 - 10
22.09.2018 18:00:00 11,0 8,0 5 3 - 10
22.09.2018 17:00:00 11,0 9,0 8 4 S 10
22.09.2018 16:00:00 12,0 7,0 8 4 SSW 10
22.09.2018 15:00:00 12,0 8,0 4 2 - 10
22.09.2018 14:00:00 12,0 8,0 9 5 SSW 10
22.09.2018 13:00:00 12,0 7,0 13 7 SW 10
22.09.2018 12:00:00 11,0 7,0 11 6 SW 10
22.09.2018 11:00:00 10,0 7,0 11 6 SSW 10
22.09.2018 10:00:00 10,0 7,0 9 5 SSW 10
22.09.2018 09:00:00 9,0 7,0 11 6 SW 10
22.09.2018 08:00:00 9,0 6,0 9 5 SSW 10
22.09.2018 07:00:00 8,0 6,0 9 5 S 10
22.09.2018 06:00:00 8,0 7,0 8 4 SSW 10
22.09.2018 05:00:00 9,0 7,0 18 10 WSW 10
22.09.2018 04:00:00 9,0 7,0 9 5 SSW 10
22.09.2018 03:00:00 9,0 7,0 11 6 SW 10
22.09.2018 02:00:00 9,0 7,0 15 8 SW 10
22.09.2018 01:00:00 8,0 6,0 11 6 SSW 10
22.09.2018 00:00:00 9,0 8,0 8 4 S 10
21.09.2018 23:00:00 9,0 8,0 9 5 SSW 10
21.09.2018 22:00:00 10,0 8,0 9 5 SSW 10
21.09.2018 21:00:00 11,0 8,0 18 10 WSW 10
21.09.2018 20:00:00 11,0 8,0 13 7 SW 10
21.09.2018 19:00:00 12,0 8,0 21 11 W 10
21.09.2018 18:00:00 11,0 8,0 22 12 W 10
21.09.2018 17:00:00 9,0 8,0 28 15 W 10
21.09.2018 16:00:00 11,0 9,0 28 15 W 10
21.09.2018 15:00:00 12,0 10,0 46 25 W 10
21.09.2018 14:00:00 11,0 9,0 34 18 WSW 4,0
21.09.2018 13:00:00 10,0 7,0 28 15 WSW 5
21.09.2018 12:00:00 11,0 6,0 18 10 SW 10
21.09.2018 11:00:00 10,0 6,0 34 18 SW 10
21.09.2018 10:00:00 11,0 7,0 31 17 SW 10
21.09.2018 09:00:00 9,0 6,0 29 16 SW 10
21.09.2018 08:00:00 9,0 7,0 28 15 WSW 10
21.09.2018 07:00:00 8,0 7,0 28 15 WSW 10
21.09.2018 06:00:00 8,0 8,0 26 14 WSW 10
21.09.2018 05:00:00 9,0 7,0 26 14 W 5
21.09.2018 04:00:00 9,0 7,0 29 16 W 10
21.09.2018 03:00:00 9,0 7,0 28 15 W 10
21.09.2018 02:00:00 10,0 9,0 44 24 W 10
21.09.2018 01:00:00 16,0 14,0 24 13 SSW 10
21.09.2018 00:00:00 16,0 16,0 16 9 S 10
20.09.2018 23:00:00 16,0 15,0 13 7 S 10
20.09.2018 22:00:00 16,0 16,0 18 10 S 10
20.09.2018 21:00:00 16,0 15,0 16 9 S 10
20.09.2018 20:00:00 17,0 15,0 16 9 S 10
20.09.2018 19:00:00 14,0 14,0 5 3 - 10
20.09.2018 18:00:00 12,0 12,0 8 4 E 10
20.09.2018 17:00:00 12,0 12,0 13 7 NW 5
20.09.2018 16:00:00 12,0 11,0 15 8 NE 5
20.09.2018 15:00:00 11,0 11,0 13 7 NE 3,0
20.09.2018 14:00:00 12,0 11,0 5 3 ENE 3,8
20.09.2018 13:00:00 12,0 10,0 2 1 - 7
20.09.2018 12:00:00 13,0 9,0 5 3 - 10
20.09.2018 11:00:00 12,0 10,0 8 4 S 10
20.09.2018 10:00:00 12,0 10,0 8 4 S 10

tt = temperature
td = dewpoint
ff = wind speed
dd = wind direction
vv = visibility

Next stations